Time;durP1;ratioP1;P1;durP2;ratioP2;P2;SDS_P1;SDS_P2;PMS_P1;PMS_P2;Temp;Humidity;BMP_temperature;BMP_pressure;BME280_temperature;BME280_humidity;BME280_pressure;Samples;Min_cycle;Max_cycle;Signal;HPM_P1;HPM_P2
2022/10/07 00:01:52;;;;;;;;;;;12.90;65.20;;;;;;5022762;28;88452;-40
2022/10/07 00:04:18;;;;;;;;;;;12.80;65.10;;;;;;5023282;28;87035;-40
2022/10/07 00:06:44;;;;;;;;;;;12.90;65.20;;;;;;5026080;28;86495;-40
2022/10/07 00:09:09;;;;;;;;;;;12.90;65.20;;;;;;5022938;28;86983;-40
2022/10/07 00:11:35;;;;;;;;;;;12.90;65.20;;;;;;5023162;28;87453;-40
2022/10/07 00:14:02;;;;;;;;;;;12.80;65.20;;;;;;5021998;28;89234;-40
2022/10/07 00:16:29;;;;;;;;;;;12.80;65.20;;;;;;5022859;28;87411;-40
2022/10/07 00:18:56;;;;;;;;;;;12.80;65.20;;;;;;5022827;28;87436;-40
2022/10/07 00:21:22;;;;;;;;;;;12.80;65.20;;;;;;5022616;28;87933;-40
2022/10/07 00:23:48;;;;;;;;;;;12.80;65.30;;;;;;5022657;28;87156;-40
2022/10/07 00:26:16;;;;;;;;;;;12.80;65.40;;;;;;5023011;28;87054;-40
2022/10/07 00:28:42;;;;;;;;;;;12.70;65.30;;;;;;5025212;28;88011;-40
2022/10/07 00:31:08;;;;;;;;;;;12.80;65.40;;;;;;5023028;28;87593;-41
2022/10/07 00:33:35;;;;;;;;;;;12.70;65.30;;;;;;5022412;28;88164;-40
2022/10/07 00:36:00;;;;;;;;;;;12.80;65.40;;;;;;5022722;28;87124;-40
2022/10/07 00:38:26;;;;;;;;;;;12.70;65.40;;;;;;5021964;28;88081;-40
2022/10/07 00:40:51;;;;;;;;;;;12.70;65.40;;;;;;5022430;28;87258;-40
2022/10/07 00:43:21;;;;;;;;;;;12.70;65.40;;;;;;5022375;28;87105;-40
2022/10/07 00:45:47;;;;;;;;;;;12.70;65.40;;;;;;5022262;28;87330;-40
2022/10/07 00:48:15;;;;;;;;;;;12.70;65.40;;;;;;5022231;28;87096;-40
2022/10/07 00:50:41;;;;;;;;;;;12.70;65.40;;;;;;5024983;28;90157;-41
2022/10/07 00:53:06;;;;;;;;;;;12.70;65.30;;;;;;5022045;28;87247;-40
2022/10/07 00:55:32;;;;;;;;;;;12.70;65.40;;;;;;5023008;28;86393;-40
2022/10/07 00:58:00;;;;;;;;;;;12.70;65.30;;;;;;5022335;28;86967;-40
2022/10/07 01:00:25;;;;;;;;;;;12.60;65.40;;;;;;5021962;28;87346;-40
2022/10/07 01:02:51;;;;;;;;;;;12.60;65.40;;;;;;5021751;28;88080;-40
2022/10/07 01:05:17;;;;;;;;;;;12.60;65.30;;;;;;5022351;28;88259;-41
2022/10/07 01:07:44;;;;;;;;;;;12.60;65.40;;;;;;5025218;28;88403;-40
2022/10/07 01:10:10;;;;;;;;;;;12.60;65.50;;;;;;5025962;28;87211;-40
2022/10/07 01:12:46;;;;;;;;;;;12.60;65.50;;;;;;5028067;28;87190;-40
2022/10/07 01:15:24;;;;;;;;;;;12.60;65.50;;;;;;5025783;28;87077;-40
2022/10/07 01:18:10;;;;;;;;;;;12.60;65.40;;;;;;5025780;28;87589;-40
2022/10/07 01:20:44;;;;;;;;;;;12.60;65.50;;;;;;5024401;28;87443;-40
2022/10/07 01:23:18;;;;;;;;;;;12.50;65.50;;;;;;5025378;28;87002;-40
2022/10/07 01:25:44;;;;;;;;;;;12.50;65.60;;;;;;5025598;28;86971;-40
2022/10/07 01:28:20;;;;;;;;;;;12.50;65.60;;;;;;5024540;28;88953;-40
2022/10/07 01:30:48;;;;;;;;;;;12.50;65.50;;;;;;5025270;28;87010;-40
2022/10/07 01:33:17;;;;;;;;;;;12.60;65.50;;;;;;5025300;28;87413;-40
2022/10/07 01:35:43;;;;;;;;;;;12.50;65.50;;;;;;5027664;28;87257;-40
2022/10/07 01:38:10;;;;;;;;;;;12.50;65.50;;;;;;5025445;28;87329;-40
2022/10/07 01:40:41;;;;;;;;;;;12.50;65.50;;;;;;5024967;28;88015;-41
2022/10/07 01:43:06;;;;;;;;;;;12.40;65.60;;;;;;5025169;28;87086;-40
2022/10/07 01:45:34;;;;;;;;;;;12.50;65.60;;;;;;5025863;28;87527;-40
2022/10/07 01:48:00;;;;;;;;;;;12.50;65.60;;;;;;5025005;28;87944;-40
2022/10/07 01:50:28;;;;;;;;;;;12.40;65.60;;;;;;5025025;28;87129;-40
2022/10/07 01:52:56;;;;;;;;;;;12.50;65.60;;;;;;5024566;28;87971;-41
2022/10/07 01:55:40;;;;;;;;;;;12.40;65.70;;;;;;5024657;28;88278;-40
2022/10/07 01:58:12;;;;;;;;;;;12.40;65.60;;;;;;5027934;28;86902;-40
2022/10/07 02:00:43;;;;;;;;;;;12.50;65.60;;;;;;5024534;28;87921;-40
2022/10/07 02:03:15;;;;;;;;;;;12.40;65.60;;;;;;5025266;28;86713;-40
2022/10/07 02:05:43;;;;;;;;;;;12.40;65.60;;;;;;5025170;28;87622;-40
2022/10/07 02:08:18;;;;;;;;;;;12.40;65.60;;;;;;5024622;28;87862;-40
2022/10/07 02:11:02;;;;;;;;;;;12.40;66.20;;;;;;5025288;28;86402;-40
2022/10/07 02:13:30;;;;;;;;;;;12.40;65.60;;;;;;5024804;28;87424;-40
2022/10/07 02:16:08;;;;;;;;;;;12.40;65.60;;;;;;5024628;28;88217;-40
2022/10/07 02:18:34;;;;;;;;;;;12.40;65.60;;;;;;5026872;28;87942;-40
2022/10/07 02:21:03;;;;;;;;;;;12.40;65.50;;;;;;5024525;28;88161;-40
2022/10/07 02:23:28;;;;;;;;;;;12.40;65.50;;;;;;5024151;28;87169;-40
2022/10/07 02:25:54;;;;;;;;;;;12.40;65.60;;;;;;5024600;28;87370;-39
2022/10/07 02:28:21;;;;;;;;;;;12.40;65.60;;;;;;5024406;28;88264;-41
2022/10/07 02:30:49;;;;;;;;;;;12.30;65.60;;;;;;5024426;28;87087;-40
2022/10/07 02:33:16;;;;;;;;;;;12.30;65.60;;;;;;5024400;28;87203;-40
2022/10/07 02:35:44;;;;;;;;;;;12.30;65.50;;;;;;5024497;28;87453;-40
2022/10/07 02:38:11;;;;;;;;;;;12.30;65.60;;;;;;5024293;28;87122;-40
2022/10/07 02:40:57;;;;;;;;;;;12.30;65.60;;;;;;5026895;28;87001;-40
2022/10/07 02:43:43;;;;;;;;;;;12.30;65.50;;;;;;5023067;28;88282;-40
2022/10/07 02:46:14;;;;;;;;;;;12.30;65.60;;;;;;5024050;28;88343;-40
2022/10/07 02:48:43;;;;;;;;;;;12.30;65.60;;;;;;5023891;28;87351;-40
2022/10/07 02:51:10;;;;;;;;;;;12.30;65.60;;;;;;5023837;28;87052;-40
2022/10/07 02:53:37;;;;;;;;;;;12.30;65.80;;;;;;5023932;28;89312;-41
2022/10/07 02:56:04;;;;;;;;;;;12.20;65.60;;;;;;5023819;28;87257;-40
2022/10/07 02:58:30;;;;;;;;;;;12.20;65.70;;;;;;5024241;28;87188;-41
2022/10/07 03:00:58;;;;;;;;;;;12.20;65.70;;;;;;5024651;28;87357;-40
2022/10/07 03:03:23;;;;;;;;;;;12.20;65.70;;;;;;5026539;28;87154;-40
2022/10/07 03:05:49;;;;;;;;;;;12.20;65.60;;;;;;5023845;28;87221;-40
2022/10/07 03:08:15;;;;;;;;;;;12.30;65.60;;;;;;5022770;28;89048;-40
2022/10/07 03:10:41;;;;;;;;;;;12.20;65.60;;;;;;5023932;28;87106;-40
2022/10/07 03:13:06;;;;;;;;;;;12.20;65.70;;;;;;5023950;28;87321;-40
2022/10/07 03:15:34;;;;;;;;;;;12.20;65.70;;;;;;5023793;28;88063;-40
2022/10/07 03:17:59;;;;;;;;;;;12.20;65.80;;;;;;5023740;28;87106;-40
2022/10/07 03:20:25;;;;;;;;;;;12.20;65.70;;;;;;5023674;28;87403;-40
2022/10/07 03:22:51;;;;;;;;;;;12.20;65.70;;;;;;5023546;28;88071;-40
2022/10/07 03:25:16;;;;;;;;;;;12.20;65.70;;;;;;5026768;28;86374;-40
2022/10/07 03:27:42;;;;;;;;;;;12.20;65.70;;;;;;5023296;28;87327;-40
2022/10/07 03:30:09;;;;;;;;;;;12.20;65.70;;;;;;5022818;28;87157;-40
2022/10/07 03:32:35;;;;;;;;;;;12.10;65.60;;;;;;5023052;28;87869;-40
2022/10/07 03:35:00;;;;;;;;;;;12.20;65.60;;;;;;5023416;28;87171;-40
2022/10/07 03:37:28;;;;;;;;;;;12.10;65.60;;;;;;5023439;28;87137;-40
2022/10/07 03:39:53;;;;;;;;;;;12.10;65.80;;;;;;5023224;28;87553;-40
2022/10/07 03:42:19;;;;;;;;;;;12.10;65.70;;;;;;5023085;28;88528;-40
2022/10/07 03:44:48;;;;;;;;;;;12.10;65.70;;;;;;5023417;28;87121;-40
2022/10/07 03:47:17;;;;;;;;;;;12.10;65.60;;;;;;5025730;28;87410;-40
2022/10/07 03:49:43;;;;;;;;;;;12.20;65.70;;;;;;5023128;28;86352;-40
2022/10/07 03:52:08;;;;;;;;;;;12.10;65.70;;;;;;5023225;28;87077;-40
2022/10/07 03:54:34;;;;;;;;;;;12.10;65.70;;;;;;5022953;28;88153;-40
2022/10/07 03:57:00;;;;;;;;;;;12.10;65.80;;;;;;5022624;28;88118;-39
2022/10/07 03:59:25;;;;;;;;;;;12.10;65.70;;;;;;5022912;28;88403;-40
2022/10/07 04:01:51;;;;;;;;;;;12.00;65.70;;;;;;5022845;28;87625;-42
2022/10/07 04:04:16;;;;;;;;;;;12.10;65.70;;;;;;5023072;28;87134;-40
2022/10/07 04:06:42;;;;;;;;;;;12.10;65.70;;;;;;5023236;28;87388;-40
2022/10/07 04:09:10;;;;;;;;;;;12.10;65.70;;;;;;5025488;28;88276;-41
2022/10/07 04:11:39;;;;;;;;;;;12.10;65.70;;;;;;5023128;28;87064;-40
2022/10/07 04:14:04;;;;;;;;;;;12.10;65.70;;;;;;5023321;28;87271;-40
2022/10/07 04:16:32;;;;;;;;;;;12.10;65.70;;;;;;5022953;28;87127;-40
2022/10/07 04:18:57;;;;;;;;;;;12.00;65.60;;;;;;5022877;28;87367;-40
2022/10/07 04:21:23;;;;;;;;;;;12.00;65.70;;;;;;5021870;28;89136;-40
2022/10/07 04:23:48;;;;;;;;;;;12.00;65.70;;;;;;5022507;28;87097;-39
2022/10/07 04:26:14;;;;;;;;;;;12.00;65.80;;;;;;5022932;28;87750;-39
2022/10/07 04:28:40;;;;;;;;;;;12.00;65.70;;;;;;5025289;28;88233;-40
2022/10/07 04:31:07;;;;;;;;;;;12.00;65.80;;;;;;5022945;28;87403;-40
2022/10/07 04:33:33;;;;;;;;;;;12.00;65.70;;;;;;5022272;28;87833;-40
2022/10/07 04:36:06;;;;;;;;;;;12.00;65.70;;;;;;5022809;28;87087;-39
2022/10/07 04:38:31;;;;;;;;;;;12.00;65.80;;;;;;5022995;28;86631;-39
2022/10/07 04:40:57;;;;;;;;;;;12.00;65.90;;;;;;5022112;28;88069;-40
2022/10/07 04:43:23;;;;;;;;;;;12.00;65.80;;;;;;5022667;28;86995;-40
2022/10/07 04:45:50;;;;;;;;;;;11.90;65.70;;;;;;5022060;28;87932;-39
2022/10/07 04:48:19;;;;;;;;;;;12.00;65.90;;;;;;5022079;28;87822;-39
2022/10/07 04:50:45;;;;;;;;;;;12.00;65.90;;;;;;5024673;28;87180;-39
2022/10/07 04:53:13;;;;;;;;;;;12.00;65.90;;;;;;5022330;28;88039;-39
2022/10/07 04:55:39;;;;;;;;;;;12.00;65.80;;;;;;5022362;28;87080;-39
2022/10/07 04:58:05;;;;;;;;;;;11.90;65.70;;;;;;5022414;28;88724;-40
2022/10/07 05:00:31;;;;;;;;;;;12.00;65.90;;;;;;5021910;28;88022;-40
2022/10/07 05:02:57;;;;;;;;;;;11.90;65.70;;;;;;5022929;28;86393;-39
2022/10/07 05:05:24;;;;;;;;;;;11.90;65.90;;;;;;5022484;28;86990;-40
2022/10/07 05:07:50;;;;;;;;;;;11.90;65.80;;;;;;5021833;28;87971;-39
2022/10/07 05:10:16;;;;;;;;;;;11.90;66.40;;;;;;5021689;28;88844;-40
2022/10/07 05:12:41;;;;;;;;;;;11.90;66.00;;;;;;5024933;28;88848;-40
2022/10/07 05:15:07;;;;;;;;;;;11.90;65.90;;;;;;5022152;28;87048;-39
2022/10/07 05:17:33;;;;;;;;;;;11.90;65.80;;;;;;5022063;28;87558;-39
2022/10/07 05:19:58;;;;;;;;;;;11.90;65.90;;;;;;5021563;28;87987;-39
2022/10/07 05:22:24;;;;;;;;;;;11.90;65.90;;;;;;5022201;28;87120;-38
2022/10/07 05:24:49;;;;;;;;;;;11.90;65.90;;;;;;5021828;28;87405;-40
2022/10/07 05:27:15;;;;;;;;;;;11.90;65.90;;;;;;5022319;28;87447;-39
2022/10/07 05:29:40;;;;;;;;;;;11.90;65.90;;;;;;5022026;28;87174;-40
2022/10/07 05:32:06;;;;;;;;;;;11.90;66.50;;;;;;5021946;28;87192;-39
2022/10/07 05:34:31;;;;;;;;;;;11.90;65.90;;;;;;5024031;28;88905;-39
2022/10/07 05:36:58;;;;;;;;;;;11.80;65.80;;;;;;5021965;28;88237;-39
2022/10/07 05:39:23;;;;;;;;;;;11.90;65.90;;;;;;5021419;28;88171;-39
2022/10/07 05:41:49;;;;;;;;;;;11.90;65.90;;;;;;5021874;28;87104;-40
2022/10/07 05:44:15;;;;;;;;;;;11.90;65.80;;;;;;5021823;28;87683;-39
2022/10/07 05:46:40;;;;;;;;;;;11.90;65.90;;;;;;5021577;28;87975;-40
2022/10/07 05:49:06;;;;;;;;;;;11.80;65.90;;;;;;5021421;28;87120;-40
2022/10/07 05:51:32;;;;;;;;;;;11.90;66.00;;;;;;5022525;28;87422;-39
2022/10/07 05:53:57;;;;;;;;;;;11.80;66.00;;;;;;5024706;28;88290;-40
2022/10/07 05:56:23;;;;;;;;;;;11.80;66.00;;;;;;5027997;28;87072;-40
2022/10/07 05:58:49;;;;;;;;;;;11.80;65.90;;;;;;5024226;28;88973;-42
2022/10/07 06:01:15;;;;;;;;;;;11.80;66.00;;;;;;5024714;28;87113;-42
2022/10/07 06:03:42;;;;;;;;;;;11.80;65.90;;;;;;5025138;28;87354;-39
2022/10/07 06:06:07;;;;;;;;;;;11.90;66.00;;;;;;5024642;28;87982;-40
2022/10/07 06:08:34;;;;;;;;;;;11.80;65.90;;;;;;5025004;28;87167;-39
2022/10/07 06:13:46;;;;;;;;;;;11.90;66.10;;;;;;5024490;28;87266;-40
2022/10/07 06:16:11;;;;;;;;;;;11.80;66.10;;;;;;5025348;28;86772;-40
2022/10/07 06:18:37;;;;;;;;;;;11.80;66.10;;;;;;5027422;28;86797;-40
2022/10/07 06:21:03;;;;;;;;;;;11.80;66.10;;;;;;5024807;28;87296;-39
2022/10/07 06:23:29;;;;;;;;;;;11.90;66.10;;;;;;5024124;28;87981;-40
2022/10/07 06:25:56;;;;;;;;;;;11.80;66.00;;;;;;5024002;28;88064;-39
2022/10/07 06:28:22;;;;;;;;;;;11.90;66.10;;;;;;5024583;28;87123;-40
2022/10/07 06:30:48;;;;;;;;;;;11.90;66.10;;;;;;5024593;28;87386;-40
2022/10/07 06:33:15;;;;;;;;;;;11.90;66.10;;;;;;5024175;28;87986;-39
2022/10/07 06:35:40;;;;;;;;;;;11.90;66.10;;;;;;5024557;28;87149;-40
2022/10/07 06:38:06;;;;;;;;;;;11.90;66.20;;;;;;5027042;28;87485;-40
2022/10/07 06:40:32;;;;;;;;;;;11.80;66.20;;;;;;5024910;28;86414;-40
2022/10/07 06:42:57;;;;;;;;;;;11.90;66.20;;;;;;5024369;28;86923;-40
2022/10/07 06:45:23;;;;;;;;;;;11.90;66.20;;;;;;5022556;28;91389;-40
2022/10/07 06:47:48;;;;;;;;;;;11.90;66.10;;;;;;5023734;28;88138;-40
2022/10/07 06:50:14;;;;;;;;;;;11.90;66.20;;;;;;5023846;28;88172;-39
2022/10/07 06:52:40;;;;;;;;;;;11.90;66.20;;;;;;5023965;28;88228;-40
2022/10/07 06:55:06;;;;;;;;;;;11.90;66.40;;;;;;5024341;28;86843;-40
2022/10/07 06:57:32;;;;;;;;;;;11.90;66.40;;;;;;5024223;28;88061;-40
2022/10/07 06:59:59;;;;;;;;;;;11.80;66.30;;;;;;5026547;28;88154;-40
2022/10/07 07:02:29;;;;;;;;;;;11.80;66.40;;;;;;5024207;28;87338;-39
2022/10/07 07:04:55;;;;;;;;;;;11.90;66.50;;;;;;5023066;28;86388;-39
2022/10/07 07:07:22;;;;;;;;;;;11.80;66.60;;;;;;5024048;28;87065;-40
2022/10/07 07:09:48;;;;;;;;;;;11.80;66.60;;;;;;5023937;28;87526;-40
2022/10/07 07:12:13;;;;;;;;;;;11.90;66.60;;;;;;5022850;28;89024;-39
2022/10/07 07:14:39;;;;;;;;;;;11.90;66.40;;;;;;5024027;28;87147;-40
2022/10/07 07:17:05;;;;;;;;;;;11.80;66.60;;;;;;5023603;28;87437;-39
2022/10/07 07:19:30;;;;;;;;;;;11.90;66.60;;;;;;5023539;28;88099;-39
2022/10/07 07:21:56;;;;;;;;;;;11.90;66.50;;;;;;5026746;28;87035;-40
2022/10/07 07:24:21;;;;;;;;;;;11.90;66.40;;;;;;5023395;28;88038;-40
2022/10/07 07:26:47;;;;;;;;;;;11.90;66.40;;;;;;5023895;28;87053;-39
2022/10/07 07:29:13;;;;;;;;;;;11.90;66.40;;;;;;5024133;28;87186;-39
2022/10/07 07:31:39;;;;;;;;;;;11.90;66.40;;;;;;5023307;28;87913;-39
2022/10/07 07:34:06;;;;;;;;;;;11.90;66.40;;;;;;5023634;28;87063;-39
2022/10/07 07:36:33;;;;;;;;;;;12.00;66.50;;;;;;5022921;28;87739;-39
2022/10/07 07:38:59;;;;;;;;;;;12.00;66.50;;;;;;5023001;28;87801;-40
2022/10/07 07:41:26;;;;;;;;;;;12.00;66.50;;;;;;5023394;28;87148;-39
2022/10/07 07:43:53;;;;;;;;;;;12.00;66.50;;;;;;5025525;28;88423;-40
2022/10/07 07:46:19;;;;;;;;;;;12.00;66.60;;;;;;5023486;28;87022;-40
2022/10/07 07:48:45;;;;;;;;;;;12.00;66.60;;;;;;5023339;28;87659;-40
2022/10/07 07:51:11;;;;;;;;;;;12.00;66.60;;;;;;5022734;28;87959;-39
2022/10/07 07:53:37;;;;;;;;;;;12.00;66.60;;;;;;5023910;28;86475;-40
2022/10/07 07:56:02;;;;;;;;;;;12.00;66.60;;;;;;5023319;28;86835;-39
2022/10/07 07:58:28;;;;;;;;;;;12.00;66.70;;;;;;5022663;28;88186;-39
2022/10/07 08:01:02;;;;;;;;;;;12.00;66.60;;;;;;5022671;28;88012;-39
2022/10/07 08:03:27;;;;;;;;;;;12.00;66.60;;;;;;5023153;28;88358;-42
2022/10/07 08:05:53;;;;;;;;;;;12.00;66.70;;;;;;5025601;28;88003;-41
2022/10/07 08:08:18;;;;;;;;;;;12.00;66.60;;;;;;5023279;28;86916;-41
2022/10/07 08:10:44;;;;;;;;;;;12.00;66.50;;;;;;5022464;28;88095;-41
2022/10/07 08:13:09;;;;;;;;;;;12.10;66.70;;;;;;5023022;28;87049;-39
2022/10/07 08:15:35;;;;;;;;;;;12.10;66.60;;;;;;5022666;28;88012;-41
2022/10/07 08:18:05;;;;;;;;;;;12.10;66.70;;;;;;5023057;28;87273;-42
2022/10/07 08:20:31;;;;;;;;;;;12.10;66.60;;;;;;5022522;28;87130;-42
2022/10/07 08:22:58;;;;;;;;;;;12.10;66.70;;;;;;5022991;28;87523;-41
2022/10/07 08:25:24;;;;;;;;;;;12.10;66.70;;;;;;5021456;28;88084;-41
2022/10/07 08:27:49;;;;;;;;;;;12.10;66.60;;;;;;5025861;28;86792;-41
2022/10/07 08:30:15;;;;;;;;;;;12.10;66.60;;;;;;5020836;28;88736;-40
2022/10/07 08:32:40;;;;;;;;;;;12.10;66.50;;;;;;5022815;28;87266;-41
2022/10/07 08:35:06;;;;;;;;;;;12.20;66.60;;;;;;5022655;28;87440;-41
2022/10/07 08:37:31;;;;;;;;;;;12.20;66.60;;;;;;5022355;28;88166;-41
2022/10/07 08:39:57;;;;;;;;;;;12.20;66.50;;;;;;5022544;28;87214;-42
2022/10/07 08:42:25;;;;;;;;;;;12.20;66.70;;;;;;5023286;28;86720;-41
2022/10/07 08:44:51;;;;;;;;;;;12.20;66.70;;;;;;5022363;28;88071;-41
2022/10/07 08:47:35;;;;;;;;;;;12.20;66.50;;;;;;5025507;28;87299;-41
2022/10/07 08:50:07;;;;;;;;;;;12.20;66.50;;;;;;5020592;28;89145;-41
2022/10/07 08:52:38;;;;;;;;;;;12.20;66.60;;;;;;5022056;28;87105;-41
2022/10/07 08:55:27;;;;;;;;;;;12.30;66.80;;;;;;5022530;28;87699;-42
2022/10/07 08:58:11;;;;;;;;;;;12.30;66.80;;;;;;5020945;28;87170;-41
2022/10/07 09:00:59;;;;;;;;;;;12.30;66.60;;;;;;5022369;28;87253;-41
2022/10/07 09:03:25;;;;;;;;;;;12.30;66.40;;;;;;5022364;28;86997;-41
2022/10/07 09:05:51;;;;;;;;;;;12.30;66.50;;;;;;5022244;28;88105;-42
2022/10/07 09:08:26;;;;;;;;;;;12.30;66.50;;;;;;5022869;28;86381;-42
2022/10/07 09:10:52;;;;;;;;;;;12.30;66.50;;;;;;5024975;28;86897;-41
2022/10/07 09:13:29;;;;;;;;;;;12.40;66.50;;;;;;5022218;28;87086;-41
2022/10/07 09:16:02;;;;;;;;;;;12.30;66.50;;;;;;5021539;28;87868;-41
2022/10/07 09:18:31;;;;;;;;;;;12.40;66.40;;;;;;5021636;28;87155;-42
2022/10/07 09:20:56;;;;;;;;;;;12.40;66.20;;;;;;5022201;28;87090;-41
2022/10/07 09:23:24;;;;;;;;;;;12.40;66.30;;;;;;5022410;28;87485;-41
2022/10/07 09:25:50;;;;;;;;;;;12.50;66.30;;;;;;5021455;28;88096;-42
2022/10/07 09:28:17;;;;;;;;;;;12.50;66.20;;;;;;5024412;28;87063;-42
2022/10/07 09:30:43;;;;;;;;;;;12.50;66.20;;;;;;5025323;28;87593;-41
2022/10/07 09:33:13;;;;;;;;;;;12.50;66.30;;;;;;5028509;28;87205;-42
2022/10/07 09:35:38;;;;;;;;;;;12.50;66.20;;;;;;5025412;28;86973;-42
2022/10/07 09:38:08;;;;;;;;;;;12.50;66.10;;;;;;5025274;28;88134;-42
2022/10/07 09:40:35;;;;;;;;;;;12.50;66.10;;;;;;5024386;28;88019;-41
2022/10/07 09:43:01;;;;;;;;;;;12.60;66.20;;;;;;5025476;28;87945;-42
2022/10/07 09:45:31;;;;;;;;;;;12.60;66.20;;;;;;5024950;28;88260;-42
2022/10/07 09:48:07;;;;;;;;;;;12.60;65.90;;;;;;5025313;28;87090;-41
2022/10/07 09:50:40;;;;;;;;;;;12.60;65.80;;;;;;5024842;28;87472;-41
2022/10/07 09:53:16;;;;;;;;;;;12.60;66.60;;;;;;5024794;28;87925;-41
2022/10/07 09:55:42;;;;;;;;;;;12.60;66.10;;;;;;5028172;28;87050;-41
2022/10/07 09:58:18;;;;;;;;;;;12.70;66.30;;;;;;5025401;28;86427;-41
2022/10/07 10:00:48;;;;;;;;;;;12.70;66.10;;;;;;5025063;28;87110;-41
2022/10/07 10:03:14;;;;;;;;;;;12.70;66.20;;;;;;5025102;28;87628;-42
2022/10/07 10:05:50;;;;;;;;;;;12.70;66.20;;;;;;5024045;28;88913;-41
2022/10/07 10:08:16;;;;;;;;;;;12.70;65.90;;;;;;5025152;28;86930;-42
2022/10/07 10:10:48;;;;;;;;;;;12.80;66.20;;;;;;5025147;28;87419;-41
2022/10/07 10:13:22;;;;;;;;;;;12.80;66.00;;;;;;5024648;28;88157;-41
2022/10/07 10:15:47;;;;;;;;;;;12.80;65.80;;;;;;5024864;28;86944;-42
2022/10/07 10:18:25;;;;;;;;;;;12.80;66.10;;;;;;5027405;28;87329;-42
2022/10/07 10:20:51;;;;;;;;;;;12.80;66.10;;;;;;5024892;28;87268;-42
2022/10/07 10:23:23;;;;;;;;;;;12.90;66.30;;;;;;5025377;28;87422;-42
2022/10/07 10:28:47;;;;;;;;;;;12.90;65.90;;;;;;5024784;28;86956;-42
2022/10/07 10:31:25;;;;;;;;;;;12.90;65.80;;;;;;5024000;28;87930;-41
2022/10/07 10:33:59;;;;;;;;;;;13.00;65.80;;;;;;5024387;28;88269;-41
2022/10/07 10:36:27;;;;;;;;;;;13.00;65.50;;;;;;5024702;28;87043;-42
2022/10/07 10:38:52;;;;;;;;;;;13.00;65.80;;;;;;5026738;28;87434;-42
2022/10/07 10:41:25;;;;;;;;;;;13.00;65.50;;;;;;5024368;28;87162;-42
2022/10/07 10:43:53;;;;;;;;;;;13.00;65.50;;;;;;5024240;28;87593;-41
2022/10/07 10:46:26;;;;;;;;;;;13.00;65.60;;;;;;5024176;28;88208;-41
2022/10/07 10:48:52;;;;;;;;;;;13.10;65.40;;;;;;5025013;28;87654;-42
2022/10/07 10:51:31;;;;;;;;;;;13.10;65.60;;;;;;5024235;28;87039;-42
2022/10/07 10:54:17;;;;;;;;;;;13.10;65.50;;;;;;5023875;28;88047;-42
2022/10/07 10:56:46;;;;;;;;;;;13.20;65.70;;;;;;5021414;28;88075;-42
2022/10/07 10:59:24;;;;;;;;;;;13.20;65.40;;;;;;5023976;28;88331;-42
2022/10/07 11:02:08;;;;;;;;;;;13.20;65.20;;;;;;5026858;28;88276;-41
2022/10/07 11:04:33;;;;;;;;;;;13.20;64.90;;;;;;5023891;28;87534;-41
2022/10/07 11:07:08;;;;;;;;;;;13.20;65.20;;;;;;5023769;28;88167;-41
2022/10/07 11:09:44;;;;;;;;;;;13.20;64.90;;;;;;5024060;28;86867;-41
2022/10/07 11:12:28;;;;;;;;;;;13.20;64.90;;;;;;5023888;28;87075;-41
2022/10/07 11:15:00;;;;;;;;;;;13.30;64.30;;;;;;5024021;28;86520;-42
2022/10/07 11:17:29;;;;;;;;;;;13.30;64.30;;;;;;5023553;28;86973;-41
2022/10/07 11:20:11;;;;;;;;;;;13.30;64.60;;;;;;5023664;28;87087;-41
2022/10/07 11:22:40;;;;;;;;;;;13.40;64.30;;;;;;5022779;28;89164;-42
2022/10/07 11:25:16;;;;;;;;;;;13.40;64.40;;;;;;5026230;28;87203;-42
2022/10/07 11:27:44;;;;;;;;;;;13.40;64.40;;;;;;5023485;28;87424;-42
2022/10/07 11:30:17;;;;;;;;;;;13.40;64.50;;;;;;5023830;28;87918;-42
2022/10/07 11:32:43;;;;;;;;;;;13.50;64.40;;;;;;5023598;28;87217;-41
2022/10/07 11:35:26;;;;;;;;;;;13.50;64.60;;;;;;5023332;28;88150;-42
2022/10/07 11:38:13;;;;;;;;;;;13.50;64.40;;;;;;5023281;28;87184;-41
2022/10/07 11:40:47;;;;;;;;;;;13.50;64.70;;;;;;5023693;28;87458;-41
2022/10/07 11:43:33;;;;;;;;;;;13.50;64.60;;;;;;5022997;28;88277;-41
2022/10/07 11:46:14;;;;;;;;;;;13.60;64.30;;;;;;5022924;28;87556;-41
2022/10/07 11:48:42;;;;;;;;;;;13.60;64.80;;;;;;5025439;28;88095;-42
2022/10/07 11:51:14;;;;;;;;;;;13.60;64.30;;;;;;5022445;28;87089;-41
2022/10/07 11:53:39;;;;;;;;;;;13.60;64.60;;;;;;5023426;28;87562;-42
2022/10/07 11:56:16;;;;;;;;;;;13.70;63.90;;;;;;5022846;28;88221;-41
2022/10/07 11:58:43;;;;;;;;;;;13.70;64.00;;;;;;5023062;28;87744;-42
2022/10/07 12:01:29;;;;;;;;;;;13.70;64.10;;;;;;5023296;28;87587;-42
2022/10/07 12:04:00;;;;;;;;;;;13.70;64.10;;;;;;5022344;28;88210;-42
2022/10/07 12:06:26;;;;;;;;;;;13.80;64.10;;;;;;5023636;28;86348;-42
2022/10/07 12:08:52;;;;;;;;;;;13.80;64.00;;;;;;5023246;28;86935;-42
2022/10/07 12:11:18;;;;;;;;;;;13.80;64.10;;;;;;5025437;28;87909;-42
2022/10/07 12:13:52;;;;;;;;;;;13.80;63.50;;;;;;5022428;28;87961;-41
2022/10/07 12:16:28;;;;;;;;;;;13.80;63.80;;;;;;5022574;28;87985;-42
2022/10/07 12:19:05;;;;;;;;;;;13.80;63.90;;;;;;5022832;28;87092;-42
2022/10/07 12:21:49;;;;;;;;;;;13.90;63.80;;;;;;5022898;28;87382;-42
2022/10/07 12:24:14;;;;;;;;;;;13.90;63.60;;;;;;5022718;28;88143;-41
2022/10/07 12:26:41;;;;;;;;;;;13.90;63.80;;;;;;5022601;28;86700;-41
2022/10/07 12:29:17;;;;;;;;;;;13.90;63.80;;;;;;5023048;28;87483;-42
2022/10/07 12:31:45;;;;;;;;;;;13.90;63.70;;;;;;5023001;28;87429;-42
2022/10/07 12:34:20;;;;;;;;;;;14.00;63.40;;;;;;5025560;28;87009;-39
2022/10/07 12:36:45;;;;;;;;;;;14.00;63.20;;;;;;5022379;28;88453;-42
2022/10/07 12:39:11;;;;;;;;;;;14.00;63.10;;;;;;5022145;28;88024;-42
2022/10/07 12:41:41;;;;;;;;;;;14.00;63.30;;;;;;5022778;28;88141;-41
2022/10/07 12:44:07;;;;;;;;;;;14.10;63.10;;;;;;5022545;28;87836;-42
2022/10/07 12:46:35;;;;;;;;;;;14.10;63.20;;;;;;5022835;28;87150;-42
2022/10/07 12:49:03;;;;;;;;;;;14.10;63.20;;;;;;5021965;28;87395;-42
2022/10/07 12:51:38;;;;;;;;;;;14.10;63.30;;;;;;5022132;28;88056;-42
2022/10/07 12:54:30;;;;;;;;;;;14.20;63.10;;;;;;5025650;28;86950;-41
2022/10/07 12:56:56;;;;;;;;;;;14.10;63.20;;;;;;5022201;28;87192;-42
2022/10/07 13:02:24;;;;;;;;;;;14.20;62.80;;;;;;5023735;28;87012;-41
2022/10/07 13:04:59;;;;;;;;;;;14.20;63.00;;;;;;5025039;28;89088;-41
2022/10/07 13:07:45;;;;;;;;;;;14.20;62.30;;;;;;5025992;28;87113;-42
2022/10/07 13:10:18;;;;;;;;;;;14.20;63.10;;;;;;5025980;28;87224;-42
2022/10/07 13:12:59;;;;;;;;;;;14.30;62.70;;;;;;5025671;28;87266;-42
2022/10/07 13:15:30;;;;;;;;;;;14.30;62.60;;;;;;5025898;28;87099;-41
2022/10/07 13:17:55;;;;;;;;;;;14.30;62.50;;;;;;5028127;28;87673;-42
2022/10/07 13:20:33;;;;;;;;;;;14.30;62.60;;;;;;5025529;28;87169;-41
2022/10/07 13:23:03;;;;;;;;;;;14.40;62.40;;;;;;5026232;28;87436;-42
2022/10/07 13:25:29;;;;;;;;;;;14.40;61.90;;;;;;5024775;28;87003;-42
2022/10/07 13:27:56;;;;;;;;;;;14.40;62.00;;;;;;5025420;28;87137;-42
2022/10/07 13:30:30;;;;;;;;;;;14.40;62.30;;;;;;5024930;28;88005;-42
2022/10/07 13:33:10;;;;;;;;;;;14.40;61.70;;;;;;5025160;28;88172;-41
2022/10/07 13:35:36;;;;;;;;;;;14.50;62.30;;;;;;5025553;28;86988;-41
2022/10/07 13:38:02;;;;;;;;;;;14.50;62.10;;;;;;5025507;28;87366;-42
2022/10/07 13:40:34;;;;;;;;;;;14.50;62.50;;;;;;5027952;28;88053;-42
2022/10/07 13:43:05;;;;;;;;;;;14.50;62.20;;;;;;5025369;28;87362;-42
2022/10/07 13:45:39;;;;;;;;;;;14.50;61.80;;;;;;5024703;28;88163;-42
2022/10/07 13:48:05;;;;;;;;;;;14.50;61.80;;;;;;5025780;28;86224;-42
2022/10/07 13:50:32;;;;;;;;;;;14.50;62.40;;;;;;5024697;28;87284;-42
2022/10/07 13:52:58;;;;;;;;;;;14.60;61.70;;;;;;5024866;28;87107;-42
2022/10/07 13:55:23;;;;;;;;;;;14.60;61.60;;;;;;5024893;28;88427;-42
2022/10/07 13:57:49;;;;;;;;;;;14.60;62.20;;;;;;5024875;28;88340;-42
2022/10/07 14:00:15;;;;;;;;;;;14.70;61.70;;;;;;5024671;28;88291;-42
2022/10/07 14:02:40;;;;;;;;;;;14.60;61.50;;;;;;5028051;28;86902;-42
2022/10/07 14:05:27;;;;;;;;;;;14.60;61.80;;;;;;5024866;28;87103;-42
2022/10/07 14:07:57;;;;;;;;;;;14.70;61.10;;;;;;5024814;28;87089;-42
2022/10/07 14:10:23;;;;;;;;;;;14.70;61.20;;;;;;5024603;28;87311;-42
2022/10/07 14:12:53;;;;;;;;;;;14.70;61.20;;;;;;5022824;28;90534;-42
2022/10/07 14:15:23;;;;;;;;;;;14.70;61.10;;;;;;5024656;28;87045;-41
2022/10/07 14:17:55;;;;;;;;;;;14.70;61.20;;;;;;5024739;28;87320;-41
2022/10/07 14:20:24;;;;;;;;;;;14.70;61.40;;;;;;5023321;28;89248;-42
2022/10/07 14:22:53;;;;;;;;;;;14.70;61.00;;;;;;5024571;28;87174;-42
2022/10/07 14:25:21;;;;;;;;;;;14.70;61.30;;;;;;5026720;28;87359;-41
2022/10/07 14:27:51;;;;;;;;;;;14.70;60.80;;;;;;5024385;28;87072;-41
2022/10/07 14:30:27;;;;;;;;;;;14.70;61.00;;;;;;5024445;28;87412;-41
2022/10/07 14:35:41;;;;;;;;;;;14.80;60.90;;;;;;5024676;28;87005;-42
2022/10/07 14:38:26;;;;;;;;;;;14.80;60.40;;;;;;5024924;28;87422;-42